createdAt,value
2017-10-10T00:01:51.541Z,9.63
2017-10-10T00:04:19.295Z,9.57
2017-10-10T00:06:46.870Z,9.55
2017-10-10T00:09:14.497Z,9.73
2017-10-10T00:11:42.016Z,9.61
2017-10-10T00:14:09.608Z,9.66
2017-10-10T00:16:37.164Z,9.61
2017-10-10T00:19:04.678Z,9.72
2017-10-10T00:21:32.617Z,9.65
2017-10-10T00:24:00.218Z,9.57
2017-10-10T00:26:27.738Z,9.54
2017-10-10T00:28:55.309Z,9.51
2017-10-10T00:31:22.867Z,9.57
2017-10-10T00:33:50.408Z,9.55
2017-10-10T00:36:17.955Z,9.29
2017-10-10T00:38:45.595Z,9.21
2017-10-10T00:41:13.130Z,9.21
2017-10-10T00:43:40.640Z,9.32
2017-10-10T00:46:08.667Z,9.19
2017-10-10T00:48:36.248Z,9.26
2017-10-10T00:51:03.778Z,9.22
2017-10-10T00:53:31.375Z,9.26
2017-10-10T00:55:58.948Z,9.17
2017-10-10T00:58:26.459Z,9.24
2017-10-10T01:00:54.099Z,9.35
2017-10-10T01:03:21.939Z,9.31
2017-10-10T01:05:49.485Z,9.20
2017-10-10T01:08:17.042Z,9.10
2017-10-10T01:10:44.826Z,9.00
2017-10-10T01:13:13.144Z,9.02
2017-10-10T01:15:40.749Z,9.01
2017-10-10T01:18:08.280Z,9.00
2017-10-10T01:20:35.810Z,9.03
2017-10-10T01:23:03.659Z,8.96
2017-10-10T01:25:31.208Z,8.92
2017-10-10T01:27:58.750Z,8.94
2017-10-10T01:30:26.451Z,8.96
2017-10-10T01:32:54.051Z,8.94
2017-10-10T01:35:21.570Z,9.01
2017-10-10T01:37:49.186Z,9.01
2017-10-10T01:40:17.062Z,8.97
2017-10-10T01:42:44.605Z,8.91
2017-10-10T01:45:12.374Z,8.85
2017-10-10T01:47:39.893Z,8.93
2017-10-10T01:50:07.714Z,8.89
2017-10-10T01:52:35.308Z,8.87
2017-10-10T01:55:03.134Z,8.81
2017-10-10T01:57:30.685Z,8.80
2017-10-10T01:59:58.255Z,8.81
2017-10-10T02:02:25.881Z,8.82
2017-10-10T02:04:53.420Z,8.72
2017-10-10T02:07:21.251Z,8.75
2017-10-10T02:09:49.089Z,8.67
2017-10-10T02:12:16.628Z,8.77
2017-10-10T02:14:44.510Z,8.76
2017-10-10T02:17:12.962Z,8.65
2017-10-10T02:19:40.521Z,8.59
2017-10-10T02:22:08.352Z,8.53
2017-10-10T02:24:35.955Z,8.53
2017-10-10T02:27:03.766Z,8.51
2017-10-10T02:29:31.325Z,8.53
2017-10-10T02:31:58.919Z,8.53
2017-10-10T02:34:26.450Z,8.50
2017-10-10T02:36:53.986Z,8.54
2017-10-10T02:39:21.542Z,8.68
2017-10-10T02:41:49.098Z,8.66
2017-10-10T02:44:16.684Z,8.61
2017-10-10T02:46:44.478Z,8.47
2017-10-10T02:49:12.029Z,8.39
2017-10-10T02:51:39.776Z,8.37
2017-10-10T02:54:07.357Z,8.35
2017-10-10T02:56:34.963Z,8.36
2017-10-10T02:59:02.943Z,8.43
2017-10-10T03:01:30.583Z,8.37
2017-10-10T03:03:58.134Z,8.36
2017-10-10T03:06:25.682Z,8.34
2017-10-10T03:08:53.279Z,8.37
2017-10-10T03:11:21.036Z,8.32
2017-10-10T03:13:48.839Z,8.20
2017-10-10T03:16:17.074Z,8.13
2017-10-10T03:18:44.647Z,8.20
2017-10-10T03:21:12.473Z,8.05
2017-10-10T03:23:40.042Z,8.65
2017-10-10T03:26:07.571Z,8.89
2017-10-10T03:28:36.115Z,8.93
2017-10-10T03:31:03.757Z,9.00
2017-10-10T03:33:31.522Z,8.80
2017-10-10T03:35:59.070Z,8.77
2017-10-10T03:38:26.920Z,8.94
2017-10-10T03:40:55.203Z,9.05
2017-10-10T03:43:23.654Z,8.99
2017-10-10T03:45:51.263Z,9.22
2017-10-10T03:48:18.827Z,9.17
2017-10-10T03:50:46.367Z,8.98
2017-10-10T03:53:13.958Z,9.11
2017-10-10T03:55:41.697Z,8.90
2017-10-10T03:58:09.251Z,9.02
2017-10-10T04:00:36.827Z,9.30
2017-10-10T04:03:04.388Z,9.26
2017-10-10T04:05:31.924Z,8.96
2017-10-10T04:07:59.511Z,8.72
2017-10-10T04:10:27.100Z,8.60
2017-10-10T04:12:54.623Z,8.47
2017-10-10T04:15:22.219Z,8.40
2017-10-10T04:17:49.774Z,8.23
2017-10-10T04:20:17.564Z,7.92
2017-10-10T04:22:45.151Z,7.96
2017-10-10T04:25:12.667Z,8.14
2017-10-10T04:27:40.425Z,8.04
2017-10-10T04:30:08.182Z,8.04
2017-10-10T04:32:35.730Z,8.02
2017-10-10T04:35:03.259Z,8.23
2017-10-10T04:37:30.827Z,8.18
2017-10-10T04:39:58.353Z,8.36
2017-10-10T04:42:25.872Z,8.07
2017-10-10T04:44:53.419Z,8.41
2017-10-10T04:47:21.009Z,8.70
2017-10-10T04:49:48.553Z,8.92
2017-10-10T04:52:16.456Z,9.09
2017-10-10T04:54:44.023Z,9.37
2017-10-10T04:57:11.542Z,9.78
2017-10-10T04:59:39.106Z,10.17
2017-10-10T05:02:06.685Z,9.77
2017-10-10T05:04:34.188Z,10.56
2017-10-10T05:07:02.211Z,10.84
2017-10-10T05:09:29.824Z,11.42
2017-10-10T05:11:57.349Z,11.63
2017-10-10T05:14:25.197Z,11.85
2017-10-10T05:16:52.759Z,12.72
2017-10-10T05:19:20.297Z,12.91
2017-10-10T05:21:48.228Z,13.07
2017-10-10T05:24:15.790Z,13.67
2017-10-10T05:26:43.589Z,13.78
2017-10-10T05:29:11.842Z,14.31
2017-10-10T05:31:39.483Z,14.43
2017-10-10T05:34:07.039Z,14.58
2017-10-10T05:36:34.581Z,14.70
2017-10-10T05:39:02.255Z,14.79
2017-10-10T05:41:29.770Z,14.72
2017-10-10T05:43:57.299Z,14.32
2017-10-10T05:46:24.837Z,14.79
2017-10-10T05:48:52.375Z,14.77
2017-10-10T05:51:19.905Z,15.57
2017-10-10T05:53:47.497Z,15.51
2017-10-10T05:56:15.037Z,15.84
2017-10-10T05:58:42.606Z,15.86
2017-10-10T06:01:10.182Z,16.22
2017-10-10T06:03:37.694Z,16.34
2017-10-10T06:06:05.462Z,16.30
2017-10-10T06:08:33.050Z,16.87
2017-10-10T06:11:00.588Z,16.84
2017-10-10T06:13:28.122Z,17.06
2017-10-10T06:15:55.710Z,18.10
2017-10-10T06:18:23.235Z,18.52
2017-10-10T06:20:50.770Z,18.67
2017-10-10T06:23:18.387Z,19.24
2017-10-10T06:25:45.895Z,18.72
2017-10-10T06:28:13.479Z,19.44
2017-10-10T06:30:41.043Z,19.58
2017-10-10T06:33:08.616Z,19.05
2017-10-10T06:35:36.160Z,19.17
2017-10-10T06:38:03.730Z,19.45
2017-10-10T06:40:31.263Z,20.13
2017-10-10T06:42:58.831Z,20.31
2017-10-10T06:45:26.446Z,20.05
2017-10-10T06:47:53.968Z,20.39
2017-10-10T06:50:21.492Z,20.59
2017-10-10T06:52:49.058Z,20.22
2017-10-10T06:55:16.596Z,20.60
2017-10-10T06:57:44.345Z,21.11
2017-10-10T07:00:12.033Z,20.89
2017-10-10T07:02:39.790Z,21.02
2017-10-10T07:05:07.379Z,21.41
2017-10-10T07:07:35.002Z,21.07
2017-10-10T07:10:02.527Z,21.38
2017-10-10T07:12:30.073Z,21.71
2017-10-10T07:14:57.622Z,21.30
2017-10-10T07:17:25.138Z,21.20
2017-10-10T07:19:52.652Z,21.36
2017-10-10T07:22:20.206Z,21.57
2017-10-10T07:24:47.736Z,21.57
2017-10-10T07:27:15.577Z,22.05
2017-10-10T07:29:43.126Z,21.59
2017-10-10T07:32:10.700Z,22.60
2017-10-10T07:34:38.206Z,22.02
2017-10-10T07:37:05.762Z,21.36
2017-10-10T07:39:33.329Z,21.32
2017-10-10T07:42:00.912Z,21.71
2017-10-10T07:44:29.090Z,21.86
2017-10-10T07:46:57.142Z,22.53
2017-10-10T07:49:24.953Z,22.61
2017-10-10T07:51:52.824Z,22.79
2017-10-10T07:54:20.463Z,22.84
2017-10-10T07:56:48.251Z,22.45
2017-10-10T07:59:16.006Z,22.25
2017-10-10T08:01:43.848Z,22.34
2017-10-10T08:04:11.392Z,22.64
2017-10-10T08:06:38.939Z,22.29
2017-10-10T08:09:06.510Z,22.55
2017-10-10T08:11:34.251Z,23.34
2017-10-10T08:14:01.843Z,22.64
2017-10-10T08:16:29.413Z,22.90
2017-10-10T08:18:56.945Z,22.96
2017-10-10T08:21:24.460Z,23.53
2017-10-10T08:23:52.023Z,23.31
2017-10-10T08:26:19.534Z,23.55
2017-10-10T08:28:47.123Z,22.95
2017-10-10T08:31:14.743Z,23.38
2017-10-10T08:33:42.310Z,23.56
2017-10-10T08:36:09.836Z,23.48
2017-10-10T08:38:37.405Z,23.76
2017-10-10T08:41:05.187Z,23.82
2017-10-10T08:43:32.810Z,23.53
2017-10-10T08:46:00.382Z,23.52
2017-10-10T08:48:28.006Z,23.56
2017-10-10T08:50:55.544Z,24.18
2017-10-10T08:53:23.115Z,24.15
2017-10-10T08:55:51.012Z,23.97
2017-10-10T08:58:18.759Z,23.76
2017-10-10T09:00:46.423Z,24.09
2017-10-10T09:03:14.264Z,23.62
2017-10-10T09:05:42.636Z,23.29
2017-10-10T09:08:10.362Z,24.28
2017-10-10T09:10:38.806Z,23.44
2017-10-10T09:13:07.119Z,23.78
2017-10-10T09:15:35.558Z,24.30
2017-10-10T09:18:04.990Z,24.67
2017-10-10T09:20:33.488Z,24.24
2017-10-10T09:23:01.318Z,24.40
2017-10-10T09:25:29.169Z,24.35
2017-10-10T09:27:56.988Z,24.22
2017-10-10T09:30:24.826Z,24.47
2017-10-10T09:32:52.412Z,24.91
2017-10-10T09:35:20.195Z,24.61
2017-10-10T09:37:47.843Z,24.54
2017-10-10T09:40:15.598Z,24.83
2017-10-10T09:42:43.149Z,25.14
2017-10-10T09:45:10.785Z,25.01
2017-10-10T09:47:38.541Z,25.80
2017-10-10T09:50:06.286Z,25.97
2017-10-10T09:52:33.905Z,25.08
2017-10-10T09:55:01.998Z,25.40
2017-10-10T09:57:29.871Z,25.19
2017-10-10T09:59:57.450Z,25.14
2017-10-10T10:02:25.059Z,25.58
2017-10-10T10:04:52.645Z,24.83
2017-10-10T10:07:20.223Z,24.11
2017-10-10T10:09:48.010Z,24.50
2017-10-10T10:12:15.679Z,24.49
2017-10-10T10:14:43.210Z,25.18
2017-10-10T10:17:10.870Z,25.63
2017-10-10T10:19:38.377Z,25.23
2017-10-10T10:22:05.937Z,25.36
2017-10-10T10:24:33.501Z,24.63
2017-10-10T10:27:01.040Z,23.75
2017-10-10T10:29:28.880Z,23.61
2017-10-10T10:31:56.457Z,23.57
2017-10-10T10:34:23.979Z,22.87
2017-10-10T10:36:51.518Z,23.50
2017-10-10T10:39:19.324Z,24.10
2017-10-10T10:41:46.874Z,24.53
2017-10-10T10:44:14.675Z,24.61
2017-10-10T10:46:42.235Z,23.62
2017-10-10T10:49:10.603Z,23.48
2017-10-10T10:51:38.179Z,23.67
2017-10-10T10:54:05.949Z,23.70
2017-10-10T10:56:33.894Z,22.99
2017-10-10T10:59:01.413Z,23.38
2017-10-10T11:01:29.316Z,23.50
2017-10-10T11:03:56.843Z,23.75
2017-10-10T11:06:24.621Z,23.83
2017-10-10T11:08:52.195Z,24.08
2017-10-10T11:11:19.787Z,24.36
2017-10-10T11:13:47.737Z,24.19
2017-10-10T11:16:15.550Z,24.28
2017-10-10T11:18:44.147Z,24.10
2017-10-10T11:21:11.719Z,24.23
2017-10-10T11:23:39.330Z,23.96
2017-10-10T11:26:07.063Z,24.26
2017-10-10T11:28:34.848Z,24.43
2017-10-10T11:31:02.724Z,24.20
2017-10-10T11:33:31.215Z,24.12
2017-10-10T11:35:58.771Z,24.50
2017-10-10T11:38:26.470Z,24.75
2017-10-10T11:40:54.018Z,24.69
2017-10-10T11:43:22.166Z,24.60
2017-10-10T11:45:49.936Z,24.54
2017-10-10T11:48:17.716Z,24.60
2017-10-10T11:50:45.378Z,24.78
2017-10-10T11:53:12.933Z,24.73
2017-10-10T11:55:40.554Z,24.88
2017-10-10T11:58:08.131Z,25.13
2017-10-10T12:00:35.686Z,25.36
2017-10-10T12:03:03.210Z,25.42
2017-10-10T12:05:30.746Z,25.49
2017-10-10T12:07:58.409Z,25.28
2017-10-10T12:10:25.922Z,24.69
2017-10-10T12:12:53.721Z,25.14
2017-10-10T12:15:21.383Z,25.42
2017-10-10T12:17:49.046Z,25.50
2017-10-10T12:20:16.851Z,25.47
2017-10-10T12:22:44.539Z,25.51
2017-10-10T12:25:12.463Z,25.20
2017-10-10T12:27:39.969Z,25.15
2017-10-10T12:30:08.238Z,24.92
2017-10-10T12:32:35.767Z,24.03
2017-10-10T12:35:03.275Z,23.58
2017-10-10T12:37:30.881Z,23.72
2017-10-10T12:39:58.417Z,24.31
2017-10-10T12:42:25.953Z,24.52
2017-10-10T12:44:53.529Z,24.75
2017-10-10T12:47:21.058Z,24.83
2017-10-10T12:49:48.937Z,24.62
2017-10-10T12:52:16.530Z,24.34
2017-10-10T12:54:44.632Z,24.01
2017-10-10T12:57:12.160Z,24.20
2017-10-10T12:59:39.776Z,24.13
2017-10-10T13:02:08.169Z,23.58
2017-10-10T13:04:35.699Z,23.18
2017-10-10T13:07:03.198Z,23.01
2017-10-10T13:09:30.860Z,22.70
2017-10-10T13:11:58.378Z,22.64
2017-10-10T13:14:26.132Z,22.59
2017-10-10T13:16:53.698Z,22.57
2017-10-10T13:19:21.215Z,22.56
2017-10-10T13:21:49.884Z,22.43
2017-10-10T13:24:17.455Z,22.22
2017-10-10T13:26:45.014Z,22.12
2017-10-10T13:29:12.582Z,22.26
2017-10-10T13:31:40.413Z,22.27
2017-10-10T13:34:07.982Z,22.05
2017-10-10T13:36:35.730Z,21.92
2017-10-10T13:39:04.990Z,21.92
2017-10-10T13:41:32.555Z,21.87
2017-10-10T13:44:00.092Z,21.84
2017-10-10T13:46:27.682Z,21.63
2017-10-10T13:48:55.233Z,21.39
2017-10-10T13:51:23.023Z,21.39
2017-10-10T13:53:50.651Z,21.36
2017-10-10T13:56:18.191Z,21.33
2017-10-10T13:58:46.525Z,21.25
2017-10-10T14:01:14.151Z,21.19
2017-10-10T14:03:41.662Z,21.14
2017-10-10T14:06:09.183Z,20.99
2017-10-10T14:08:36.802Z,21.07
2017-10-10T14:11:04.360Z,21.14
2017-10-10T14:13:31.953Z,21.19
2017-10-10T14:15:59.523Z,21.15
2017-10-10T14:18:27.042Z,21.05
2017-10-10T14:20:54.779Z,21.12
2017-10-10T14:23:23.267Z,21.09
2017-10-10T14:25:51.153Z,20.98
2017-10-10T14:28:18.697Z,20.95
2017-10-10T14:30:46.290Z,20.84
2017-10-10T14:33:13.817Z,20.81
2017-10-10T14:35:41.586Z,20.94
2017-10-10T14:38:09.270Z,20.85
2017-10-10T14:40:37.088Z,20.79
2017-10-10T14:43:04.618Z,20.70
2017-10-10T14:45:32.444Z,20.65
2017-10-10T14:48:00.246Z,20.64
2017-10-10T14:50:27.772Z,20.46
2017-10-10T14:52:55.982Z,20.42
2017-10-10T14:55:24.429Z,20.42
2017-10-10T14:57:52.081Z,20.39
2017-10-10T15:00:19.766Z,20.36
2017-10-10T15:02:48.027Z,20.29
2017-10-10T15:05:15.817Z,20.18
2017-10-10T15:07:43.479Z,20.15
2017-10-10T15:10:11.066Z,20.02
2017-10-10T15:12:39.080Z,20.01
2017-10-10T15:15:06.709Z,20.04
2017-10-10T15:17:36.575Z,20.05
2017-10-10T15:20:04.390Z,19.95
2017-10-10T15:22:33.042Z,19.92
2017-10-10T15:25:00.792Z,19.86
2017-10-10T15:27:28.908Z,19.85
2017-10-10T15:29:56.758Z,19.64
2017-10-10T15:32:24.797Z,19.64
2017-10-10T15:34:52.363Z,19.63
2017-10-10T15:37:19.891Z,19.48
2017-10-10T15:39:47.434Z,19.52
2017-10-10T15:42:15.036Z,19.56
2017-10-10T15:44:42.836Z,19.58
2017-10-10T15:47:10.405Z,19.44
2017-10-10T15:49:38.206Z,19.35
2017-10-10T15:52:05.739Z,19.35
2017-10-10T15:54:33.301Z,19.21
2017-10-10T15:57:01.057Z,19.09
2017-10-10T15:59:28.591Z,18.95
2017-10-10T16:01:56.587Z,18.64
2017-10-10T16:04:24.128Z,18.33
2017-10-10T16:06:51.649Z,18.19
2017-10-10T16:09:19.431Z,17.92
2017-10-10T16:11:46.960Z,17.75
2017-10-10T16:14:15.706Z,17.74
2017-10-10T16:16:43.303Z,17.73
2017-10-10T16:19:10.839Z,17.84
2017-10-10T16:21:38.399Z,18.00
2017-10-10T16:24:05.949Z,18.05
2017-10-10T16:26:33.478Z,17.92
2017-10-10T16:29:01.016Z,17.85
2017-10-10T16:31:28.639Z,17.87
2017-10-10T16:33:56.213Z,17.74
2017-10-10T16:36:23.962Z,17.63
2017-10-10T16:38:51.640Z,17.33
2017-10-10T16:41:19.235Z,17.09
2017-10-10T16:43:46.860Z,16.98
2017-10-10T16:46:14.449Z,16.95
2017-10-10T16:48:41.993Z,16.77
2017-10-10T16:51:09.562Z,16.69
2017-10-10T16:53:37.238Z,16.55
2017-10-10T16:56:04.935Z,16.55
2017-10-10T16:58:32.486Z,16.50
2017-10-10T17:01:00.412Z,16.45
2017-10-10T17:03:27.968Z,16.30
2017-10-10T17:05:55.498Z,16.36
2017-10-10T17:08:23.139Z,16.36
2017-10-10T17:10:50.691Z,16.32
2017-10-10T17:13:18.318Z,16.45
2017-10-10T17:15:45.885Z,16.42
2017-10-10T17:18:13.421Z,16.41
2017-10-10T17:20:40.951Z,16.42
2017-10-10T17:23:08.501Z,16.39
2017-10-10T17:25:36.533Z,16.30
2017-10-10T17:28:04.063Z,16.23
2017-10-10T17:30:31.846Z,16.07
2017-10-10T17:32:59.387Z,15.98
2017-10-10T17:35:26.991Z,16.00
2017-10-10T17:37:54.541Z,16.08
2017-10-10T17:40:22.072Z,16.00
2017-10-10T17:42:49.862Z,15.97
2017-10-10T17:45:17.421Z,15.75
2017-10-10T17:47:44.982Z,15.80
2017-10-10T17:50:12.517Z,15.93
2017-10-10T17:52:40.071Z,15.91
2017-10-10T17:55:07.860Z,15.95
2017-10-10T17:57:35.382Z,15.96
2017-10-10T18:00:02.963Z,15.79
2017-10-10T18:02:30.538Z,15.70
2017-10-10T18:04:58.061Z,15.70
2017-10-10T18:07:25.932Z,15.63
2017-10-10T18:09:53.560Z,15.73
2017-10-10T18:12:21.147Z,15.63
2017-10-10T18:14:48.887Z,15.54
2017-10-10T18:17:16.519Z,15.47
2017-10-10T18:19:44.089Z,15.43
2017-10-10T18:22:11.860Z,15.57
2017-10-10T18:24:39.410Z,15.40
2017-10-10T18:27:06.995Z,15.37
2017-10-10T18:29:34.523Z,15.49
2017-10-10T18:32:02.230Z,15.37
2017-10-10T18:34:29.995Z,15.49
2017-10-10T18:36:57.595Z,15.56
2017-10-10T18:39:25.169Z,15.80
2017-10-10T18:41:52.718Z,15.70
2017-10-10T18:44:20.512Z,15.73
2017-10-10T18:46:48.083Z,15.66
2017-10-10T18:49:15.613Z,15.71
2017-10-10T18:51:43.159Z,15.62
2017-10-10T18:54:10.765Z,15.66
2017-10-10T18:56:38.702Z,15.75
2017-10-10T18:59:06.461Z,15.72
2017-10-10T19:01:34.522Z,15.69
2017-10-10T19:04:02.099Z,15.38
2017-10-10T19:06:29.646Z,15.66
2017-10-10T19:08:57.518Z,15.69
2017-10-10T19:11:25.134Z,15.78
2017-10-10T19:13:52.685Z,15.94
2017-10-10T19:16:20.293Z,15.52
2017-10-10T19:18:47.815Z,15.47
2017-10-10T19:21:15.340Z,15.23
2017-10-10T19:23:42.934Z,15.12
2017-10-10T19:26:10.488Z,15.19
2017-10-10T19:28:38.083Z,15.10
2017-10-10T19:31:06.666Z,14.91
2017-10-10T19:33:34.291Z,14.87
2017-10-10T19:36:01.814Z,14.91
2017-10-10T19:38:30.288Z,14.77
2017-10-10T19:40:57.835Z,14.81
2017-10-10T19:43:25.707Z,14.87
2017-10-10T19:45:53.356Z,14.60
2017-10-10T19:48:20.886Z,14.33
2017-10-10T19:50:48.474Z,14.55
2017-10-10T19:53:16.700Z,14.59
2017-10-10T19:55:44.303Z,14.68
2017-10-10T19:58:11.848Z,14.78
2017-10-10T20:00:39.631Z,14.77
2017-10-10T20:03:07.146Z,14.71
2017-10-10T20:05:35.000Z,14.70
2017-10-10T20:08:03.554Z,14.78
2017-10-10T20:10:31.338Z,14.87
2017-10-10T20:12:58.864Z,14.83
2017-10-10T20:15:26.547Z,14.75
2017-10-10T20:17:54.081Z,14.85
2017-10-10T20:20:21.625Z,14.66
2017-10-10T20:22:49.243Z,14.24
2017-10-10T20:25:16.793Z,14.18
2017-10-10T20:27:44.319Z,14.22
2017-10-10T20:30:12.043Z,13.92
2017-10-10T20:32:39.608Z,14.01
2017-10-10T20:35:08.062Z,14.08
2017-10-10T20:37:35.665Z,14.14
2017-10-10T20:40:03.239Z,14.18
2017-10-10T20:42:30.839Z,14.14
2017-10-10T20:44:58.475Z,14.02
2017-10-10T20:47:26.051Z,14.04
2017-10-10T20:49:53.616Z,13.94
2017-10-10T20:52:21.209Z,14.05
2017-10-10T20:54:48.781Z,13.98
2017-10-10T20:57:16.595Z,14.02
2017-10-10T20:59:44.197Z,14.08
2017-10-10T21:02:11.856Z,13.96
2017-10-10T21:04:39.391Z,13.83
2017-10-10T21:07:07.143Z,13.79
2017-10-10T21:09:34.725Z,13.80
2017-10-10T21:12:02.573Z,13.89
2017-10-10T21:14:30.099Z,13.93
2017-10-10T21:16:57.671Z,14.06
2017-10-10T21:19:25.932Z,14.07
2017-10-10T21:21:53.473Z,13.92
2017-10-10T21:24:21.074Z,13.81
2017-10-10T21:26:48.625Z,13.81
2017-10-10T21:29:16.137Z,13.89
2017-10-10T21:31:43.718Z,13.87
2017-10-10T21:34:11.237Z,13.66
2017-10-10T21:36:39.006Z,13.62
2017-10-10T21:39:06.550Z,13.71
2017-10-10T21:41:34.886Z,13.67
2017-10-10T21:44:02.423Z,13.70
2017-10-10T21:46:30.831Z,13.49
2017-10-10T21:48:58.350Z,13.35
2017-10-10T21:51:25.884Z,13.47
2017-10-10T21:53:53.654Z,13.46
2017-10-10T21:56:21.222Z,13.49
2017-10-10T21:58:48.780Z,13.51
2017-10-10T22:01:16.360Z,13.39
2017-10-10T22:03:43.906Z,13.39
2017-10-10T22:06:11.479Z,13.26
2017-10-10T22:08:39.148Z,13.33
2017-10-10T22:11:06.667Z,13.37
2017-10-10T22:13:34.200Z,13.25
2017-10-10T22:16:01.744Z,13.15
2017-10-10T22:18:29.281Z,13.02
2017-10-10T22:20:56.797Z,13.01
2017-10-10T22:23:24.381Z,13.01
2017-10-10T22:25:52.121Z,12.86
2017-10-10T22:28:19.867Z,12.80
2017-10-10T22:30:47.486Z,12.82
2017-10-10T22:33:15.017Z,12.80
2017-10-10T22:35:42.540Z,12.75
2017-10-10T22:38:10.147Z,12.49
2017-10-10T22:40:37.752Z,12.62
2017-10-10T22:43:05.289Z,12.68
2017-10-10T22:45:32.852Z,12.63
2017-10-10T22:48:00.673Z,12.64
2017-10-10T22:50:28.204Z,12.73
2017-10-10T22:52:55.827Z,12.62
2017-10-10T22:55:23.356Z,12.55
2017-10-10T22:57:51.099Z,12.50
2017-10-10T23:07:31.294Z,12.24
2017-10-10T23:09:58.863Z,12.17
2017-10-10T23:12:26.394Z,12.24
2017-10-10T23:14:53.967Z,12.16
2017-10-10T23:17:21.557Z,12.07
2017-10-10T23:19:49.123Z,12.10
2017-10-10T23:22:16.726Z,12.06
2017-10-10T23:24:44.298Z,12.25
2017-10-10T23:27:11.857Z,12.37
2017-10-10T23:29:39.421Z,12.37
2017-10-10T23:32:07.007Z,12.27
2017-10-10T23:34:34.545Z,12.34
2017-10-10T23:37:02.464Z,12.33
2017-10-10T23:39:30.035Z,12.23
2017-10-10T23:41:57.808Z,12.23
2017-10-10T23:44:25.449Z,12.24
2017-10-10T23:46:52.983Z,12.16
2017-10-10T23:49:20.502Z,12.17
2017-10-10T23:51:48.081Z,12.23
2017-10-10T23:54:15.622Z,12.12
2017-10-10T23:56:43.206Z,12.12
2017-10-10T23:59:10.839Z,12.08
